Weather reports worldwide

Advertisment
South Newington, United Kingdom (99166): temperature & dewpoint: 14.06.2019 13:00:00 - 20.06.2019 13:00:00 (BST)South Newington, United Kingdom (99166): temperature -20cm & temperature -100cm: 14.06.2019 13:00:00 - 20.06.2019 13:00:00 (BST)South Newington, United Kingdom (99166): precipitation: 14.06.2019 13:00:00 - 20.06.2019 13:00:00 (BST)
Date & Time tt [°C] td [°C] tt -20cm [°C] tt -100cm [°C] rr [mm]
20.06.2019 13:00:00 15,8 9,0 - - 0,0
20.06.2019 12:00:00 16,6 9,0 - - 0,0
20.06.2019 11:00:00 15,7 9,2 - - 0,0
20.06.2019 10:00:00 16,3 9,6 16,0 13,0 0,0
20.06.2019 09:00:00 15,4 10,1 - - 0,0
20.06.2019 08:00:00 13,8 9,7 - - 0,0
20.06.2019 07:00:00 11,8 9,3 - - 0,0
20.06.2019 06:00:00 8,3 8,1 - - 0,0
20.06.2019 05:00:00 7,6 6,9 - - 0,0
20.06.2019 04:00:00 9,5 8,5 - - 0,0
20.06.2019 03:00:00 10,8 9,3 - - 0,0
20.06.2019 02:00:00 11,9 9,7 - - 0,0
20.06.2019 01:00:00 12,3 12,0 - - 0,0
20.06.2019 00:00:00 12,3 12,0 - - 0,0
19.06.2019 23:00:00 11,7 11,0 - - 0,0
19.06.2019 22:00:00 14,1 12,2 - - 0,0
19.06.2019 21:00:00 15,8 13,0 - - 0,0
19.06.2019 20:00:00 16,5 12,8 - - 0,0
19.06.2019 19:00:00 16,5 12,4 - - 0,0
19.06.2019 18:00:00 16,5 12,6 - - 0,0
19.06.2019 17:00:00 18,2 12,9 - - 0,0
19.06.2019 16:00:00 18,2 12,4 - - 0,0
19.06.2019 15:00:00 17,2 13,0 - - 0,0
19.06.2019 14:00:00 18,0 14,0 - - 0,0
19.06.2019 13:00:00 17,3 13,8 - - 0,0
19.06.2019 12:00:00 17,2 14,3 - - 0,0
19.06.2019 11:00:00 16,4 14,2 - - 0,0
19.06.2019 10:00:00 16,0 13,8 15,7 13,0 0,0
19.06.2019 09:00:00 15,0 14,0 - - 0,0
19.06.2019 08:00:00 14,6 14,4 - - 0,0
19.06.2019 07:00:00 14,1 14,0 - - 0,0
19.06.2019 06:00:00 13,7 13,6 - - 0,0
19.06.2019 05:00:00 13,5 13,4 - - 0,0
19.06.2019 04:00:00 13,3 13,2 - - 0,0
19.06.2019 03:00:00 12,9 12,7 - - 0,0
19.06.2019 02:00:00 13,1 12,9 - - 0,0
19.06.2019 01:00:00 13,0 12,8 - - 0,0
19.06.2019 00:00:00 13,0 12,6 - - 0,0
18.06.2019 23:00:00 13,1 12,7 - - 0,0
18.06.2019 22:00:00 13,7 13,2 - - 0,0
18.06.2019 21:00:00 14,4 13,7 - - 0,2
18.06.2019 20:00:00 14,6 13,8 - - 0,0
18.06.2019 19:00:00 14,6 13,5 - - 0,6
18.06.2019 18:00:00 15,2 13,4 - - 0,4
18.06.2019 17:00:00 15,9 12,9 - - 0,4
18.06.2019 16:00:00 17,2 12,3 - - 0,0
18.06.2019 15:00:00 17,0 11,7 - - 0,2
18.06.2019 14:00:00 16,6 12,1 - - 0,0
18.06.2019 13:00:00 17,5 11,3 - - 0,0
18.06.2019 12:00:00 17,3 10,5 - - 0,0
18.06.2019 11:00:00 16,5 10,7 - - 0,0
18.06.2019 10:00:00 15,9 12,0 15,5 12,9 0,0
18.06.2019 09:00:00 14,3 11,8 - - 0,0
18.06.2019 08:00:00 12,9 11,7 - - 0,0
18.06.2019 07:00:00 11,2 11,2 - - 0,0
18.06.2019 06:00:00 8,8 8,6 - - 0,0
18.06.2019 05:00:00 8,3 8,0 - - 0,0
18.06.2019 04:00:00 8,5 8,2 - - 0,0
18.06.2019 03:00:00 8,3 7,7 - - 0,0
18.06.2019 02:00:00 10,1 9,1 - - 0,0
18.06.2019 01:00:00 12,3 10,6 - - 0,0
18.06.2019 00:00:00 13,3 10,8 - - 0,0
17.06.2019 23:00:00 13,9 10,2 - - 0,0
17.06.2019 22:00:00 14,6 10,3 - - 0,0
17.06.2019 21:00:00 15,4 10,3 - - 0,0
17.06.2019 20:00:00 16,1 10,4 - - 0,0
17.06.2019 19:00:00 16,9 10,6 - - 0,0
17.06.2019 18:00:00 17,1 10,7 - - 0,0
17.06.2019 17:00:00 17,4 10,6 - - 0,0
17.06.2019 16:00:00 17,9 10,2 - - 0,0
17.06.2019 15:00:00 17,0 11,5 - - 0,0
17.06.2019 14:00:00 17,1 11,4 - - 0,0
17.06.2019 13:00:00 16,6 10,9 - - 0,0
17.06.2019 12:00:00 16,2 10,9 - - 0,0
17.06.2019 11:00:00 15,9 10,6 - - 0,0
17.06.2019 10:00:00 16,5 11,3 15,2 12,9 0,0
17.06.2019 09:00:00 15,5 10,6 - - 0,0
17.06.2019 08:00:00 14,9 10,6 - - 0,0
17.06.2019 07:00:00 14,1 10,5 - - 0,0
17.06.2019 06:00:00 13,3 10,1 - - 0,0
17.06.2019 05:00:00 13,3 10,0 - - 0,0
17.06.2019 04:00:00 13,3 10,2 - - 0,0
17.06.2019 03:00:00 13,5 10,0 - - 0,0
17.06.2019 02:00:00 13,5 10,4 - - 0,0
17.06.2019 01:00:00 13,7 10,2 - - 0,0
17.06.2019 00:00:00 13,8 10,3 - - 0,0
16.06.2019 23:00:00 14,0 10,6 - - 0,0
16.06.2019 22:00:00 14,3 10,6 - - 0,0
16.06.2019 21:00:00 14,7 10,1 - - 0,0
16.06.2019 20:00:00 15,5 10,2 - - 0,0
16.06.2019 19:00:00 16,2 11,7 - - 0,0
16.06.2019 18:00:00 15,9 13,4 - - 0,0
16.06.2019 17:00:00 15,4 13,3 - - 0,4
16.06.2019 16:00:00 16,0 12,2 - - 2,8
16.06.2019 15:00:00 18,3 12,0 - - 0,0
16.06.2019 14:00:00 18,3 11,5 - - 0,0
16.06.2019 13:00:00 18,2 11,4 - - 0,0
16.06.2019 12:00:00 17,7 12,1 - - 0,0
16.06.2019 11:00:00 15,5 13,4 - - 1,6
16.06.2019 10:00:00 12,8 11,8 14,7 12,9 0,8
16.06.2019 09:00:00 12,6 11,4 - - 0,0
16.06.2019 08:00:00 11,5 10,9 - - 0,0
16.06.2019 07:00:00 10,2 10,1 - - 0,0
16.06.2019 06:00:00 8,8 8,8 - - 0,0
16.06.2019 05:00:00 7,1 7,0 - - 0,0
16.06.2019 04:00:00 5,5 5,3 - - 0,0
16.06.2019 03:00:00 5,6 5,2 - - 0,0
16.06.2019 02:00:00 7,5 7,4 - - 0,0
16.06.2019 01:00:00 7,5 7,3 - - 0,0
16.06.2019 00:00:00 6,6 6,1 - - 0,0
15.06.2019 23:00:00 7,5 6,4 - - 0,0
15.06.2019 22:00:00 10,5 8,1 - - 0,0
15.06.2019 21:00:00 12,1 8,9 - - 0,0
15.06.2019 20:00:00 12,5 10,1 - - 0,2
15.06.2019 19:00:00 13,5 10,3 - - 0,2
15.06.2019 18:00:00 15,2 10,8 - - 0,0
15.06.2019 17:00:00 13,4 11,4 - - 5,8
15.06.2019 16:00:00 15,4 11,8 - - 0,0
15.06.2019 15:00:00 13,7 12,3 - - 0,6
15.06.2019 14:00:00 13,5 11,6 - - 0,2
15.06.2019 13:00:00 13,8 10,5 - - 0,0
15.06.2019 12:00:00 14,7 9,9 - - 0,0
15.06.2019 11:00:00 15,0 10,1 - - 0,0
15.06.2019 10:00:00 14,8 9,4 14,5 12,9 0,0
15.06.2019 09:00:00 14,0 9,6 - - 0,0
15.06.2019 08:00:00 13,4 10,7 - - 0,0
15.06.2019 07:00:00 11,3 10,3 - - 0,0
15.06.2019 06:00:00 8,9 8,5 - - 0,0
15.06.2019 05:00:00 9,6 8,9 - - 0,0
15.06.2019 04:00:00 9,8 9,0 - - 0,0
15.06.2019 03:00:00 9,6 8,7 - - 0,0
15.06.2019 02:00:00 8,8 8,6 - - 0,0
15.06.2019 01:00:00 8,1 7,4 - - 0,0
15.06.2019 00:00:00 9,2 8,8 - - 0,0
14.06.2019 23:00:00 9,0 7,8 - - 0,0
14.06.2019 22:00:00 10,3 8,3 - - 0,0
14.06.2019 21:00:00 13,4 8,2 - - 0,0
14.06.2019 20:00:00 15,3 8,6 - - 0,0
14.06.2019 19:00:00 15,8 9,0 - - 0,0
14.06.2019 18:00:00 15,8 9,3 - - 0,0
14.06.2019 17:00:00 16,0 10,0 - - 0,0
14.06.2019 16:00:00 16,2 10,2 - - 0,0
14.06.2019 15:00:00 15,8 12,7 - - 0,0
14.06.2019 14:00:00 17,1 11,2 - - 0,0
14.06.2019 13:00:00 15,6 13,7 - - 0,6

tt = temperature
td = dewpoint
tt -20cm = temperature -20cm
tt -100cm = temperature -100cm
rr = precipitation

Next stations